sensor_id;sensor_type;location;lat;lon;timestamp;P1;durP1;ratioP1;P2;durP2;ratioP2
37559;SDS011;23398;50.928;7.084;2023-03-26T00:01:29;10.57;;;2.30;;
37559;SDS011;23398;50.928;7.084;2023-03-26T00:03:57;8.27;;;2.58;;
37559;SDS011;23398;50.928;7.084;2023-03-26T00:06:24;7.25;;;2.40;;
37559;SDS011;23398;50.928;7.084;2023-03-26T00:08:55;5.97;;;1.95;;
37559;SDS011;23398;50.928;7.084;2023-03-26T00:11:22;7.45;;;2.30;;
37559;SDS011;23398;50.928;7.084;2023-03-26T00:13:49;6.50;;;2.10;;
37559;SDS011;23398;50.928;7.084;2023-03-26T00:16:18;9.00;;;2.55;;
37559;SDS011;23398;50.928;7.084;2023-03-26T00:18:44;12.10;;;2.60;;
37559;SDS011;23398;50.928;7.084;2023-03-26T00:21:12;8.40;;;2.65;;
37559;SDS011;23398;50.928;7.084;2023-03-26T00:23:39;8.65;;;2.33;;
37559;SDS011;23398;50.928;7.084;2023-03-26T00:26:06;8.52;;;2.25;;
37559;SDS011;23398;50.928;7.084;2023-03-26T00:28:39;9.23;;;2.30;;
37559;SDS011;23398;50.928;7.084;2023-03-26T00:31:07;8.80;;;2.40;;
37559;SDS011;23398;50.928;7.084;2023-03-26T00:33:35;8.63;;;2.00;;
37559;SDS011;23398;50.928;7.084;2023-03-26T00:36:05;8.90;;;2.22;;
37559;SDS011;23398;50.928;7.084;2023-03-26T00:38:33;6.95;;;2.08;;
37559;SDS011;23398;50.928;7.084;2023-03-26T00:41:02;7.22;;;2.10;;
37559;SDS011;23398;50.928;7.084;2023-03-26T00:43:31;8.20;;;2.08;;
37559;SDS011;23398;50.928;7.084;2023-03-26T00:45:58;7.05;;;2.08;;
37559;SDS011;23398;50.928;7.084;2023-03-26T00:48:26;7.90;;;2.08;;
37559;SDS011;23398;50.928;7.084;2023-03-26T00:50:53;10.20;;;2.40;;
37559;SDS011;23398;50.928;7.084;2023-03-26T00:53:20;11.32;;;2.15;;
37559;SDS011;23398;50.928;7.084;2023-03-26T00:55:46;9.50;;;2.55;;
37559;SDS011;23398;50.928;7.084;2023-03-26T00:58:12;7.40;;;2.13;;
37559;SDS011;23398;50.928;7.084;2023-03-26T01:00:52;7.15;;;2.20;;
37559;SDS011;23398;50.928;7.084;2023-03-26T01:03:23;8.77;;;2.03;;
37559;SDS011;23398;50.928;7.084;2023-03-26T01:05:56;6.13;;;2.05;;
37559;SDS011;23398;50.928;7.084;2023-03-26T01:08:34;6.78;;;1.92;;
37559;SDS011;23398;50.928;7.084;2023-03-26T01:11:05;9.80;;;2.63;;
37559;SDS011;23398;50.928;7.084;2023-03-26T01:13:39;6.28;;;1.90;;
37559;SDS011;23398;50.928;7.084;2023-03-26T01:16:13;6.55;;;2.40;;
37559;SDS011;23398;50.928;7.084;2023-03-26T01:18:46;6.18;;;2.10;;
37559;SDS011;23398;50.928;7.084;2023-03-26T01:21:13;5.72;;;1.90;;
37559;SDS011;23398;50.928;7.084;2023-03-26T01:23:47;6.03;;;1.70;;
37559;SDS011;23398;50.928;7.084;2023-03-26T01:26:49;9.30;;;2.42;;
37559;SDS011;23398;50.928;7.084;2023-03-26T01:35:28;9.88;;;2.30;;
37559;SDS011;23398;50.928;7.084;2023-03-26T01:40:59;6.50;;;2.33;;
37559;SDS011;23398;50.928;7.084;2023-03-26T01:43:46;9.52;;;2.30;;
37559;SDS011;23398;50.928;7.084;2023-03-26T01:46:20;7.88;;;2.10;;
37559;SDS011;23398;50.928;7.084;2023-03-26T01:48:47;6.53;;;2.38;;
37559;SDS011;23398;50.928;7.084;2023-03-26T01:51:23;8.30;;;2.33;;
37559;SDS011;23398;50.928;7.084;2023-03-26T01:53:54;8.85;;;2.00;;
37559;SDS011;23398;50.928;7.084;2023-03-26T01:59:16;10.18;;;2.67;;
37559;SDS011;23398;50.928;7.084;2023-03-26T02:01:53;8.35;;;2.28;;
37559;SDS011;23398;50.928;7.084;2023-03-26T02:09:46;8.15;;;1.90;;
37559;SDS011;23398;50.928;7.084;2023-03-26T02:12:18;9.88;;;2.78;;
37559;SDS011;23398;50.928;7.084;2023-03-26T02:14:46;7.75;;;2.22;;
37559;SDS011;23398;50.928;7.084;2023-03-26T02:17:11;6.22;;;1.90;;
37559;SDS011;23398;50.928;7.084;2023-03-26T02:19:37;7.47;;;1.95;;
37559;SDS011;23398;50.928;7.084;2023-03-26T02:22:09;6.18;;;1.80;;
37559;SDS011;23398;50.928;7.084;2023-03-26T02:24:40;7.13;;;2.08;;
37559;SDS011;23398;50.928;7.084;2023-03-26T02:27:06;8.93;;;2.50;;
37559;SDS011;23398;50.928;7.084;2023-03-26T02:29:35;8.27;;;2.20;;
37559;SDS011;23398;50.928;7.084;2023-03-26T02:32:03;5.38;;;1.92;;
37559;SDS011;23398;50.928;7.084;2023-03-26T02:34:29;11.73;;;2.40;;
37559;SDS011;23398;50.928;7.084;2023-03-26T02:36:55;6.68;;;2.13;;
37559;SDS011;23398;50.928;7.084;2023-03-26T02:39:22;7.00;;;2.03;;
37559;SDS011;23398;50.928;7.084;2023-03-26T02:41:48;6.47;;;2.28;;
37559;SDS011;23398;50.928;7.084;2023-03-26T02:44:13;7.93;;;2.13;;
37559;SDS011;23398;50.928;7.084;2023-03-26T02:46:39;6.35;;;2.40;;
37559;SDS011;23398;50.928;7.084;2023-03-26T02:49:05;5.47;;;2.13;;
37559;SDS011;23398;50.928;7.084;2023-03-26T02:51:30;6.45;;;2.03;;
37559;SDS011;23398;50.928;7.084;2023-03-26T02:53:59;6.82;;;2.40;;
37559;SDS011;23398;50.928;7.084;2023-03-26T02:56:25;6.05;;;2.25;;
37559;SDS011;23398;50.928;7.084;2023-03-26T02:58:51;8.95;;;2.53;;
37559;SDS011;23398;50.928;7.084;2023-03-26T03:01:17;10.63;;;2.50;;
37559;SDS011;23398;50.928;7.084;2023-03-26T03:03:42;5.82;;;2.08;;
37559;SDS011;23398;50.928;7.084;2023-03-26T03:06:08;7.00;;;2.30;;
37559;SDS011;23398;50.928;7.084;2023-03-26T03:08:34;6.18;;;2.17;;
37559;SDS011;23398;50.928;7.084;2023-03-26T03:11:00;8.70;;;2.40;;
37559;SDS011;23398;50.928;7.084;2023-03-26T03:13:31;7.93;;;2.28;;
37559;SDS011;23398;50.928;7.084;2023-03-26T03:15:57;8.75;;;2.17;;
37559;SDS011;23398;50.928;7.084;2023-03-26T03:18:22;7.25;;;2.22;;
37559;SDS011;23398;50.928;7.084;2023-03-26T03:20:48;5.88;;;1.90;;
37559;SDS011;23398;50.928;7.084;2023-03-26T03:23:14;8.13;;;2.25;;
37559;SDS011;23398;50.928;7.084;2023-03-26T03:25:40;9.68;;;2.38;;
37559;SDS011;23398;50.928;7.084;2023-03-26T03:28:06;6.63;;;1.90;;
37559;SDS011;23398;50.928;7.084;2023-03-26T03:30:32;7.03;;;2.20;;
37559;SDS011;23398;50.928;7.084;2023-03-26T03:32:58;9.93;;;2.33;;
37559;SDS011;23398;50.928;7.084;2023-03-26T03:35:24;7.50;;;2.40;;
37559;SDS011;23398;50.928;7.084;2023-03-26T03:37:51;6.60;;;2.05;;
37559;SDS011;23398;50.928;7.084;2023-03-26T03:40:17;8.98;;;2.58;;
37559;SDS011;23398;50.928;7.084;2023-03-26T03:42:44;7.75;;;2.20;;
37559;SDS011;23398;50.928;7.084;2023-03-26T03:45:10;7.20;;;1.90;;
37559;SDS011;23398;50.928;7.084;2023-03-26T03:47:37;6.07;;;2.00;;
37559;SDS011;23398;50.928;7.084;2023-03-26T03:50:03;6.97;;;2.20;;
37559;SDS011;23398;50.928;7.084;2023-03-26T03:52:30;5.38;;;2.00;;
37559;SDS011;23398;50.928;7.084;2023-03-26T03:54:56;6.95;;;1.90;;
37559;SDS011;23398;50.928;7.084;2023-03-26T03:57:24;5.07;;;1.90;;
37559;SDS011;23398;50.928;7.084;2023-03-26T03:59:50;7.88;;;2.00;;
37559;SDS011;23398;50.928;7.084;2023-03-26T04:02:16;6.10;;;1.77;;
37559;SDS011;23398;50.928;7.084;2023-03-26T04:04:54;6.63;;;1.70;;
37559;SDS011;23398;50.928;7.084;2023-03-26T04:07:24;9.68;;;2.15;;
37559;SDS011;23398;50.928;7.084;2023-03-26T04:09:50;5.38;;;2.03;;
37559;SDS011;23398;50.928;7.084;2023-03-26T04:12:15;7.68;;;2.50;;
37559;SDS011;23398;50.928;7.084;2023-03-26T04:14:41;6.43;;;1.70;;
37559;SDS011;23398;50.928;7.084;2023-03-26T04:17:07;5.57;;;1.65;;
37559;SDS011;23398;50.928;7.084;2023-03-26T04:19:33;5.63;;;2.08;;
37559;SDS011;23398;50.928;7.084;2023-03-26T04:21:59;5.68;;;1.92;;
37559;SDS011;23398;50.928;7.084;2023-03-26T04:24:27;6.05;;;2.00;;
37559;SDS011;23398;50.928;7.084;2023-03-26T04:26:54;4.97;;;1.48;;
37559;SDS011;23398;50.928;7.084;2023-03-26T04:29:22;7.20;;;1.83;;
37559;SDS011;23398;50.928;7.084;2023-03-26T04:31:51;7.43;;;2.40;;
37559;SDS011;23398;50.928;7.084;2023-03-26T04:34:22;3.75;;;1.58;;
37559;SDS011;23398;50.928;7.084;2023-03-26T04:36:49;9.68;;;2.33;;
37559;SDS011;23398;50.928;7.084;2023-03-26T04:39:18;5.60;;;1.45;;
37559;SDS011;23398;50.928;7.084;2023-03-26T04:41:46;6.05;;;1.90;;
37559;SDS011;23398;50.928;7.084;2023-03-26T04:44:12;5.57;;;2.08;;
37559;SDS011;23398;50.928;7.084;2023-03-26T04:46:41;6.55;;;1.95;;
37559;SDS011;23398;50.928;7.084;2023-03-26T04:49:07;5.82;;;2.00;;
37559;SDS011;23398;50.928;7.084;2023-03-26T04:51:36;5.82;;;1.92;;
37559;SDS011;23398;50.928;7.084;2023-03-26T04:54:08;5.72;;;1.90;;
37559;SDS011;23398;50.928;7.084;2023-03-26T04:59:37;5.97;;;2.17;;
37559;SDS011;23398;50.928;7.084;2023-03-26T05:02:05;7.28;;;1.77;;
37559;SDS011;23398;50.928;7.084;2023-03-26T05:04:33;6.80;;;1.98;;
37559;SDS011;23398;50.928;7.084;2023-03-26T05:07:01;7.40;;;2.15;;
37559;SDS011;23398;50.928;7.084;2023-03-26T05:09:27;6.35;;;1.88;;
37559;SDS011;23398;50.928;7.084;2023-03-26T05:11:53;7.95;;;2.20;;
37559;SDS011;23398;50.928;7.084;2023-03-26T05:14:18;5.72;;;2.05;;
37559;SDS011;23398;50.928;7.084;2023-03-26T05:16:45;7.07;;;2.22;;
37559;SDS011;23398;50.928;7.084;2023-03-26T05:19:12;4.38;;;1.70;;
37559;SDS011;23398;50.928;7.084;2023-03-26T05:21:38;7.38;;;2.00;;
37559;SDS011;23398;50.928;7.084;2023-03-26T05:24:04;6.78;;;1.98;;
37559;SDS011;23398;50.928;7.084;2023-03-26T05:26:31;5.70;;;1.85;;
37559;SDS011;23398;50.928;7.084;2023-03-26T05:28:57;4.50;;;1.77;;
37559;SDS011;23398;50.928;7.084;2023-03-26T05:31:23;6.60;;;1.80;;
37559;SDS011;23398;50.928;7.084;2023-03-26T05:33:50;6.88;;;2.20;;
37559;SDS011;23398;50.928;7.084;2023-03-26T05:36:16;6.43;;;2.33;;
37559;SDS011;23398;50.928;7.084;2023-03-26T05:38:43;6.95;;;2.10;;
37559;SDS011;23398;50.928;7.084;2023-03-26T05:41:13;4.60;;;1.77;;
37559;SDS011;23398;50.928;7.084;2023-03-26T05:43:39;5.97;;;1.98;;
37559;SDS011;23398;50.928;7.084;2023-03-26T05:46:05;7.55;;;1.95;;
37559;SDS011;23398;50.928;7.084;2023-03-26T05:48:31;5.85;;;2.08;;
37559;SDS011;23398;50.928;7.084;2023-03-26T05:50:57;6.30;;;2.22;;
37559;SDS011;23398;50.928;7.084;2023-03-26T05:53:24;6.00;;;2.05;;
37559;SDS011;23398;50.928;7.084;2023-03-26T05:55:51;7.70;;;1.95;;
37559;SDS011;23398;50.928;7.084;2023-03-26T05:58:25;5.13;;;1.85;;
37559;SDS011;23398;50.928;7.084;2023-03-26T06:00:59;4.60;;;1.67;;
37559;SDS011;23398;50.928;7.084;2023-03-26T06:03:30;4.68;;;1.95;;
37559;SDS011;23398;50.928;7.084;2023-03-26T06:05:56;5.80;;;1.80;;
37559;SDS011;23398;50.928;7.084;2023-03-26T06:08:22;5.60;;;1.75;;
37559;SDS011;23398;50.928;7.084;2023-03-26T06:10:48;4.80;;;1.75;;
37559;SDS011;23398;50.928;7.084;2023-03-26T06:13:14;5.43;;;2.08;;
37559;SDS011;23398;50.928;7.084;2023-03-26T06:15:41;4.90;;;1.98;;
37559;SDS011;23398;50.928;7.084;2023-03-26T06:18:07;7.80;;;2.35;;
37559;SDS011;23398;50.928;7.084;2023-03-26T06:20:33;6.65;;;2.15;;
37559;SDS011;23398;50.928;7.084;2023-03-26T06:22:59;8.38;;;2.10;;
37559;SDS011;23398;50.928;7.084;2023-03-26T06:25:25;6.50;;;2.80;;
37559;SDS011;23398;50.928;7.084;2023-03-26T06:27:50;8.18;;;3.55;;
37559;SDS011;23398;50.928;7.084;2023-03-26T06:30:16;5.32;;;2.17;;
37559;SDS011;23398;50.928;7.084;2023-03-26T06:32:42;7.65;;;2.50;;
37559;SDS011;23398;50.928;7.084;2023-03-26T06:35:07;6.68;;;2.00;;
37559;SDS011;23398;50.928;7.084;2023-03-26T06:37:33;6.63;;;2.45;;
37559;SDS011;23398;50.928;7.084;2023-03-26T06:39:59;5.53;;;2.03;;
37559;SDS011;23398;50.928;7.084;2023-03-26T06:42:24;8.95;;;2.13;;
37559;SDS011;23398;50.928;7.084;2023-03-26T06:44:50;8.07;;;2.70;;
37559;SDS011;23398;50.928;7.084;2023-03-26T06:47:16;4.85;;;1.88;;
37559;SDS011;23398;50.928;7.084;2023-03-26T06:49:41;5.45;;;1.90;;
37559;SDS011;23398;50.928;7.084;2023-03-26T06:52:07;5.70;;;1.98;;
37559;SDS011;23398;50.928;7.084;2023-03-26T06:54:32;6.75;;;2.10;;
37559;SDS011;23398;50.928;7.084;2023-03-26T06:56:58;6.30;;;2.08;;
37559;SDS011;23398;50.928;7.084;2023-03-26T06:59:24;7.00;;;2.40;;
37559;SDS011;23398;50.928;7.084;2023-03-26T07:01:49;5.80;;;2.35;;
37559;SDS011;23398;50.928;7.084;2023-03-26T07:04:15;6.22;;;2.00;;
37559;SDS011;23398;50.928;7.084;2023-03-26T07:06:41;4.40;;;1.92;;
37559;SDS011;23398;50.928;7.084;2023-03-26T07:09:07;3.95;;;1.98;;
37559;SDS011;23398;50.928;7.084;2023-03-26T07:11:32;3.35;;;1.70;;
37559;SDS011;23398;50.928;7.084;2023-03-26T07:13:58;5.13;;;1.77;;
37559;SDS011;23398;50.928;7.084;2023-03-26T07:16:23;4.20;;;1.77;;
37559;SDS011;23398;50.928;7.084;2023-03-26T07:18:49;3.92;;;1.65;;
37559;SDS011;23398;50.928;7.084;2023-03-26T07:21:15;3.67;;;1.60;;
37559;SDS011;23398;50.928;7.084;2023-03-26T07:23:41;7.15;;;1.98;;
37559;SDS011;23398;50.928;7.084;2023-03-26T07:26:12;6.03;;;2.00;;
37559;SDS011;23398;50.928;7.084;2023-03-26T07:28:51;7.28;;;1.90;;
37559;SDS011;23398;50.928;7.084;2023-03-26T07:34:14;6.88;;;1.92;;
37559;SDS011;23398;50.928;7.084;2023-03-26T07:37:06;4.70;;;1.85;;
37559;SDS011;23398;50.928;7.084;2023-03-26T07:45:21;5.57;;;1.80;;
37559;SDS011;23398;50.928;7.084;2023-03-26T07:47:58;4.75;;;1.83;;
37559;SDS011;23398;50.928;7.084;2023-03-26T07:50:24;5.22;;;1.98;;
37559;SDS011;23398;50.928;7.084;2023-03-26T07:52:51;6.00;;;1.88;;
37559;SDS011;23398;50.928;7.084;2023-03-26T07:55:18;4.97;;;1.98;;
37559;SDS011;23398;50.928;7.084;2023-03-26T08:00:40;5.90;;;2.10;;
37559;SDS011;23398;50.928;7.084;2023-03-26T08:16:44;3.92;;;1.92;;
37559;SDS011;23398;50.928;7.084;2023-03-26T08:24:48;5.95;;;1.92;;
37559;SDS011;23398;50.928;7.084;2023-03-26T08:30:13;5.00;;;1.67;;
37559;SDS011;23398;50.928;7.084;2023-03-26T08:32:48;6.20;;;1.80;;
37559;SDS011;23398;50.928;7.084;2023-03-26T08:35:18;5.18;;;1.85;;
37559;SDS011;23398;50.928;7.084;2023-03-26T08:37:44;7.13;;;2.25;;
37559;SDS011;23398;50.928;7.084;2023-03-26T08:40:10;5.95;;;2.22;;
37559;SDS011;23398;50.928;7.084;2023-03-26T08:53:38;4.88;;;1.73;;
37559;SDS011;23398;50.928;7.084;2023-03-26T08:56:30;3.53;;;1.50;;
37559;SDS011;23398;50.928;7.084;2023-03-26T09:04:52;3.03;;;1.45;;
37559;SDS011;23398;50.928;7.084;2023-03-26T09:07:53;3.75;;;1.48;;
37559;SDS011;23398;50.928;7.084;2023-03-26T09:19:09;4.30;;;1.20;;
37559;SDS011;23398;50.928;7.084;2023-03-26T09:25:35;3.15;;;1.23;;
37559;SDS011;23398;50.928;7.084;2023-03-26T09:31:03;3.78;;;1.80;;
37559;SDS011;23398;50.928;7.084;2023-03-26T09:36:05;2.47;;;1.40;;
37559;SDS011;23398;50.928;7.084;2023-03-26T09:38:51;2.80;;;1.38;;
37559;SDS011;23398;50.928;7.084;2023-03-26T09:52:40;3.47;;;1.90;;
37559;SDS011;23398;50.928;7.084;2023-03-26T09:55:37;3.67;;;1.50;;
37559;SDS011;23398;50.928;7.084;2023-03-26T09:58:34;2.67;;;1.30;;
37559;SDS011;23398;50.928;7.084;2023-03-26T10:01:36;2.30;;;1.30;;
37559;SDS011;23398;50.928;7.084;2023-03-26T10:10:03;3.13;;;1.20;;
37559;SDS011;23398;50.928;7.084;2023-03-26T10:12:42;2.33;;;1.33;;
37559;SDS011;23398;50.928;7.084;2023-03-26T10:29:29;4.10;;;1.63;;
37559;SDS011;23398;50.928;7.084;2023-03-26T10:34:47;4.72;;;2.50;;
37559;SDS011;23398;50.928;7.084;2023-03-26T10:37:20;6.30;;;2.97;;
37559;SDS011;23398;50.928;7.084;2023-03-26T10:40:03;3.80;;;2.35;;
37559;SDS011;23398;50.928;7.084;2023-03-26T10:53:48;5.25;;;2.53;;
37559;SDS011;23398;50.928;7.084;2023-03-26T10:58:59;6.97;;;2.20;;
37559;SDS011;23398;50.928;7.084;2023-03-26T11:04:27;4.85;;;2.40;;
37559;SDS011;23398;50.928;7.084;2023-03-26T11:07:17;3.05;;;1.83;;
37559;SDS011;23398;50.928;7.084;2023-03-26T11:10:01;3.22;;;1.58;;
37559;SDS011;23398;50.928;7.084;2023-03-26T11:15:22;4.50;;;2.08;;
37559;SDS011;23398;50.928;7.084;2023-03-26T11:23:17;2.63;;;1.70;;
37559;SDS011;23398;50.928;7.084;2023-03-26T11:31:34;3.00;;;1.70;;
37559;SDS011;23398;50.928;7.084;2023-03-26T11:34:10;3.97;;;1.60;;
37559;SDS011;23398;50.928;7.084;2023-03-26T11:36:41;3.30;;;1.80;;
37559;SDS011;23398;50.928;7.084;2023-03-26T11:39:11;2.63;;;1.42;;
37559;SDS011;23398;50.928;7.084;2023-03-26T11:41:43;2.17;;;1.40;;
37559;SDS011;23398;50.928;7.084;2023-03-26T11:46:48;3.40;;;1.85;;
37559;SDS011;23398;50.928;7.084;2023-03-26T11:49:22;2.47;;;1.30;;
37559;SDS011;23398;50.928;7.084;2023-03-26T11:51:50;2.63;;;1.50;;
37559;SDS011;23398;50.928;7.084;2023-03-26T11:54:16;3.38;;;1.50;;
37559;SDS011;23398;50.928;7.084;2023-03-26T11:59:26;2.13;;;1.48;;
37559;SDS011;23398;50.928;7.084;2023-03-26T12:04:37;2.05;;;1.40;;
37559;SDS011;23398;50.928;7.084;2023-03-26T12:12:40;2.53;;;1.20;;
37559;SDS011;23398;50.928;7.084;2023-03-26T12:15:13;1.90;;;1.08;;
37559;SDS011;23398;50.928;7.084;2023-03-26T12:17:40;2.10;;;1.30;;
37559;SDS011;23398;50.928;7.084;2023-03-26T12:22:58;2.15;;;1.08;;
37559;SDS011;23398;50.928;7.084;2023-03-26T12:25:26;1.58;;;1.08;;
37559;SDS011;23398;50.928;7.084;2023-03-26T12:30:38;1.25;;;0.88;;
37559;SDS011;23398;50.928;7.084;2023-03-26T12:33:06;0.75;;;0.73;;
37559;SDS011;23398;50.928;7.084;2023-03-26T12:35:42;1.55;;;0.75;;
37559;SDS011;23398;50.928;7.084;2023-03-26T12:38:21;1.02;;;0.60;;
37559;SDS011;23398;50.928;7.084;2023-03-26T12:41:11;0.70;;;0.70;;
37559;SDS011;23398;50.928;7.084;2023-03-26T12:43:41;1.30;;;0.60;;
37559;SDS011;23398;50.928;7.084;2023-03-26T12:48:56;0.70;;;0.70;;
37559;SDS011;23398;50.928;7.084;2023-03-26T12:56:55;0.70;;;0.70;;
37559;SDS011;23398;50.928;7.084;2023-03-26T13:02:57;1.60;;;0.90;;
37559;SDS011;23398;50.928;7.084;2023-03-26T13:05:35;0.65;;;0.65;;
37559;SDS011;23398;50.928;7.084;2023-03-26T13:22:30;1.20;;;0.68;;
37559;SDS011;23398;50.928;7.084;2023-03-26T13:35:48;1.55;;;0.80;;
37559;SDS011;23398;50.928;7.084;2023-03-26T13:43:42;0.82;;;0.82;;
37559;SDS011;23398;50.928;7.084;2023-03-26T13:46:37;0.90;;;0.80;;
37559;SDS011;23398;50.928;7.084;2023-03-26T13:49:10;1.20;;;0.90;;
37559;SDS011;23398;50.928;7.084;2023-03-26T13:51:55;1.52;;;1.00;;
37559;SDS011;23398;50.928;7.084;2023-03-26T13:54:45;1.02;;;0.90;;
37559;SDS011;23398;50.928;7.084;2023-03-26T13:59:52;2.58;;;1.80;;
37559;SDS011;23398;50.928;7.084;2023-03-26T14:02:43;2.70;;;2.05;;
37559;SDS011;23398;50.928;7.084;2023-03-26T14:05:14;1.80;;;1.45;;
37559;SDS011;23398;50.928;7.084;2023-03-26T14:10:20;4.13;;;1.33;;
37559;SDS011;23398;50.928;7.084;2023-03-26T14:15:33;1.45;;;1.23;;
37559;SDS011;23398;50.928;7.084;2023-03-26T14:21:13;1.70;;;1.30;;
37559;SDS011;23398;50.928;7.084;2023-03-26T14:23:57;2.22;;;1.25;;
37559;SDS011;23398;50.928;7.084;2023-03-26T14:26:36;1.30;;;1.20;;
37559;SDS011;23398;50.928;7.084;2023-03-26T14:35:27;1.13;;;1.02;;
37559;SDS011;23398;50.928;7.084;2023-03-26T14:40:54;1.92;;;1.20;;
37559;SDS011;23398;50.928;7.084;2023-03-26T14:54:44;1.92;;;1.20;;
37559;SDS011;23398;50.928;7.084;2023-03-26T15:05:30;1.17;;;1.00;;
37559;SDS011;23398;50.928;7.084;2023-03-26T15:08:41;1.85;;;1.05;;
37559;SDS011;23398;50.928;7.084;2023-03-26T15:11:21;1.20;;;1.10;;
37559;SDS011;23398;50.928;7.084;2023-03-26T15:31:08;1.17;;;0.80;;
37559;SDS011;23398;50.928;7.084;2023-03-26T15:42:16;0.90;;;0.73;;
37559;SDS011;23398;50.928;7.084;2023-03-26T15:45:11;0.80;;;0.80;;
37559;SDS011;23398;50.928;7.084;2023-03-26T15:47:49;0.70;;;0.70;;
37559;SDS011;23398;50.928;7.084;2023-03-26T16:01:12;1.00;;;0.90;;
37559;SDS011;23398;50.928;7.084;2023-03-26T16:06:36;0.90;;;0.80;;
37559;SDS011;23398;50.928;7.084;2023-03-26T16:12:25;0.95;;;0.70;;
37559;SDS011;23398;50.928;7.084;2023-03-26T16:18:42;0.80;;;0.70;;
37559;SDS011;23398;50.928;7.084;2023-03-26T16:21:24;0.82;;;0.80;;
37559;SDS011;23398;50.928;7.084;2023-03-26T16:29:19;0.80;;;0.73;;
37559;SDS011;23398;50.928;7.084;2023-03-26T16:34:51;0.73;;;0.73;;
37559;SDS011;23398;50.928;7.084;2023-03-26T16:43:08;1.40;;;1.10;;
37559;SDS011;23398;50.928;7.084;2023-03-26T16:45:50;1.95;;;1.05;;
37559;SDS011;23398;50.928;7.084;2023-03-26T16:54:08;1.52;;;0.90;;
37559;SDS011;23398;50.928;7.084;2023-03-26T17:05:18;1.27;;;0.90;;
37559;SDS011;23398;50.928;7.084;2023-03-26T17:10:55;0.93;;;0.88;;
37559;SDS011;23398;50.928;7.084;2023-03-26T17:16:43;1.13;;;0.98;;
37559;SDS011;23398;50.928;7.084;2023-03-26T17:33:33;1.30;;;1.00;;
37559;SDS011;23398;50.928;7.084;2023-03-26T17:41:06;1.65;;;1.20;;
37559;SDS011;23398;50.928;7.084;2023-03-26T17:46:11;1.15;;;1.00;;
37559;SDS011;23398;50.928;7.084;2023-03-26T17:54:31;1.77;;;1.40;;
37559;SDS011;23398;50.928;7.084;2023-03-26T18:00:10;2.08;;;1.40;;
37559;SDS011;23398;50.928;7.084;2023-03-26T18:02:42;1.58;;;1.33;;
37559;SDS011;23398;50.928;7.084;2023-03-26T18:05:13;2.60;;;1.45;;
37559;SDS011;23398;50.928;7.084;2023-03-26T18:16:22;2.50;;;1.60;;
37559;SDS011;23398;50.928;7.084;2023-03-26T18:23:57;1.80;;;1.50;;
37559;SDS011;23398;50.928;7.084;2023-03-26T18:29:09;3.22;;;1.80;;
37559;SDS011;23398;50.928;7.084;2023-03-26T18:31:41;4.47;;;1.88;;
37559;SDS011;23398;50.928;7.084;2023-03-26T18:34:12;3.47;;;1.83;;
37559;SDS011;23398;50.928;7.084;2023-03-26T18:36:45;5.78;;;2.60;;
37559;SDS011;23398;50.928;7.084;2023-03-26T18:39:24;3.97;;;2.30;;
37559;SDS011;23398;50.928;7.084;2023-03-26T18:41:51;4.68;;;2.30;;
37559;SDS011;23398;50.928;7.084;2023-03-26T18:44:17;5.20;;;2.83;;
37559;SDS011;23398;50.928;7.084;2023-03-26T18:46:43;4.10;;;2.83;;
37559;SDS011;23398;50.928;7.084;2023-03-26T18:49:10;6.13;;;2.67;;
37559;SDS011;23398;50.928;7.084;2023-03-26T18:51:38;6.25;;;3.03;;
37559;SDS011;23398;50.928;7.084;2023-03-26T18:54:05;6.03;;;2.88;;
37559;SDS011;23398;50.928;7.084;2023-03-26T18:56:36;3.83;;;2.88;;
37559;SDS011;23398;50.928;7.084;2023-03-26T18:59:05;7.50;;;2.92;;
37559;SDS011;23398;50.928;7.084;2023-03-26T19:01:44;5.68;;;2.50;;
37559;SDS011;23398;50.928;7.084;2023-03-26T19:04:12;4.43;;;2.35;;
37559;SDS011;23398;50.928;7.084;2023-03-26T19:06:39;6.20;;;2.63;;
37559;SDS011;23398;50.928;7.084;2023-03-26T19:09:07;5.22;;;2.60;;
37559;SDS011;23398;50.928;7.084;2023-03-26T19:11:37;6.75;;;2.88;;
37559;SDS011;23398;50.928;7.084;2023-03-26T19:14:06;5.07;;;2.08;;
37559;SDS011;23398;50.928;7.084;2023-03-26T19:16:38;8.23;;;2.33;;
37559;SDS011;23398;50.928;7.084;2023-03-26T19:19:07;6.47;;;2.40;;
37559;SDS011;23398;50.928;7.084;2023-03-26T19:21:40;7.97;;;3.00;;
37559;SDS011;23398;50.928;7.084;2023-03-26T19:24:06;6.35;;;2.38;;
37559;SDS011;23398;50.928;7.084;2023-03-26T19:26:33;5.47;;;2.15;;
37559;SDS011;23398;50.928;7.084;2023-03-26T19:29:00;6.43;;;2.40;;
37559;SDS011;23398;50.928;7.084;2023-03-26T19:34:01;6.60;;;2.22;;
37559;SDS011;23398;50.928;7.084;2023-03-26T19:36:52;7.45;;;2.22;;
37559;SDS011;23398;50.928;7.084;2023-03-26T19:39:29;6.03;;;2.33;;
37559;SDS011;23398;50.928;7.084;2023-03-26T19:41:59;5.45;;;2.33;;
37559;SDS011;23398;50.928;7.084;2023-03-26T19:44:28;6.32;;;2.15;;
37559;SDS011;23398;50.928;7.084;2023-03-26T19:47:02;6.60;;;2.28;;
37559;SDS011;23398;50.928;7.084;2023-03-26T19:49:32;8.35;;;2.28;;
37559;SDS011;23398;50.928;7.084;2023-03-26T19:52:24;7.25;;;2.13;;
37559;SDS011;23398;50.928;7.084;2023-03-26T19:57:16;4.35;;;2.05;;
37559;SDS011;23398;50.928;7.084;2023-03-26T19:59:42;5.18;;;1.75;;
37559;SDS011;23398;50.928;7.084;2023-03-26T20:02:10;6.30;;;2.60;;
37559;SDS011;23398;50.928;7.084;2023-03-26T20:04:37;7.57;;;2.25;;
37559;SDS011;23398;50.928;7.084;2023-03-26T20:07:19;6.32;;;1.75;;
37559;SDS011;23398;50.928;7.084;2023-03-26T20:09:46;6.43;;;2.03;;
37559;SDS011;23398;50.928;7.084;2023-03-26T20:12:13;6.20;;;2.00;;
37559;SDS011;23398;50.928;7.084;2023-03-26T20:14:39;7.13;;;2.40;;
37559;SDS011;23398;50.928;7.084;2023-03-26T20:17:13;7.05;;;2.22;;
37559;SDS011;23398;50.928;7.084;2023-03-26T20:19:41;7.20;;;1.85;;
37559;SDS011;23398;50.928;7.084;2023-03-26T20:22:11;5.90;;;1.70;;
37559;SDS011;23398;50.928;7.084;2023-03-26T20:24:38;7.13;;;2.50;;
37559;SDS011;23398;50.928;7.084;2023-03-26T20:27:05;6.57;;;2.05;;
37559;SDS011;23398;50.928;7.084;2023-03-26T20:29:31;6.35;;;1.77;;
37559;SDS011;23398;50.928;7.084;2023-03-26T20:31:56;7.40;;;2.20;;
37559;SDS011;23398;50.928;7.084;2023-03-26T20:34:22;6.32;;;2.25;;
37559;SDS011;23398;50.928;7.084;2023-03-26T20:36:48;10.85;;;1.98;;
37559;SDS011;23398;50.928;7.084;2023-03-26T20:39:23;5.00;;;1.60;;
37559;SDS011;23398;50.928;7.084;2023-03-26T20:41:49;10.80;;;2.30;;
37559;SDS011;23398;50.928;7.084;2023-03-26T20:44:18;4.65;;;1.90;;
37559;SDS011;23398;50.928;7.084;2023-03-26T20:46:45;5.55;;;2.05;;
37559;SDS011;23398;50.928;7.084;2023-03-26T20:49:12;6.75;;;1.80;;
37559;SDS011;23398;50.928;7.084;2023-03-26T20:51:39;6.20;;;1.70;;
37559;SDS011;23398;50.928;7.084;2023-03-26T20:54:16;6.10;;;2.22;;
37559;SDS011;23398;50.928;7.084;2023-03-26T20:56:45;7.07;;;2.10;;
37559;SDS011;23398;50.928;7.084;2023-03-26T20:59:12;7.88;;;2.38;;
37559;SDS011;23398;50.928;7.084;2023-03-26T21:01:42;5.00;;;1.90;;
37559;SDS011;23398;50.928;7.084;2023-03-26T21:04:08;7.53;;;2.05;;
37559;SDS011;23398;50.928;7.084;2023-03-26T21:06:35;4.90;;;2.20;;
37559;SDS011;23398;50.928;7.084;2023-03-26T21:09:01;5.05;;;1.90;;
37559;SDS011;23398;50.928;7.084;2023-03-26T21:14:18;6.40;;;2.25;;
37559;SDS011;23398;50.928;7.084;2023-03-26T21:16:54;6.57;;;1.88;;
37559;SDS011;23398;50.928;7.084;2023-03-26T21:19:20;6.00;;;1.90;;
37559;SDS011;23398;50.928;7.084;2023-03-26T21:30:09;5.72;;;2.10;;
37559;SDS011;23398;50.928;7.084;2023-03-26T21:32:38;5.38;;;1.75;;
37559;SDS011;23398;50.928;7.084;2023-03-26T21:35:04;5.60;;;1.80;;
37559;SDS011;23398;50.928;7.084;2023-03-26T21:37:31;7.40;;;1.67;;
37559;SDS011;23398;50.928;7.084;2023-03-26T21:39:57;9.35;;;1.88;;
37559;SDS011;23398;50.928;7.084;2023-03-26T21:42:23;5.97;;;1.90;;
37559;SDS011;23398;50.928;7.084;2023-03-26T21:44:53;7.03;;;1.88;;
37559;SDS011;23398;50.928;7.084;2023-03-26T21:47:20;5.50;;;1.70;;